createdAt,value
2023-05-05T00:01:03.223Z,10.02
2023-05-05T00:03:31.237Z,10.00
2023-05-05T00:05:59.198Z,9.97
2023-05-05T00:08:28.560Z,9.96
2023-05-05T00:10:57.704Z,9.95
2023-05-05T00:13:25.985Z,9.93
2023-05-05T00:15:54.161Z,9.92
2023-05-05T00:18:22.163Z,9.90
2023-05-05T00:20:50.219Z,9.88
2023-05-05T00:23:19.537Z,9.86
2023-05-05T00:25:47.809Z,9.84
2023-05-05T00:28:15.882Z,9.81
2023-05-05T00:30:44.115Z,9.78
2023-05-05T00:33:12.434Z,9.76
2023-05-05T00:35:40.579Z,9.73
2023-05-05T00:38:08.630Z,9.70
2023-05-05T00:40:38.174Z,9.68
2023-05-05T00:43:07.762Z,9.64
2023-05-05T00:45:37.466Z,9.60
2023-05-05T00:48:06.717Z,9.56
2023-05-05T00:50:35.231Z,9.53
2023-05-05T00:53:06.134Z,9.51
2023-05-05T00:55:35.323Z,9.49
2023-05-05T00:58:04.498Z,9.48
2023-05-05T01:00:32.926Z,9.48
2023-05-05T01:03:01.589Z,9.45
2023-05-05T01:05:42.167Z,9.44
2023-05-05T01:08:27.176Z,9.42
2023-05-05T01:11:02.209Z,9.40
2023-05-05T01:13:48.375Z,9.38
2023-05-05T01:16:29.046Z,9.36
2023-05-05T01:19:27.926Z,9.34
2023-05-05T01:22:02.015Z,9.33
2023-05-05T01:24:45.084Z,9.32
2023-05-05T01:27:59.853Z,9.32
2023-05-05T01:30:33.537Z,9.32
2023-05-05T01:33:06.593Z,9.32
2023-05-05T01:35:45.882Z,9.32
2023-05-05T01:38:25.584Z,9.32
2023-05-05T01:41:05.306Z,9.32
2023-05-05T01:43:35.873Z,9.31
2023-05-05T01:46:06.444Z,9.31
2023-05-05T01:48:35.163Z,9.31
2023-05-05T01:51:03.948Z,9.29
2023-05-05T01:53:33.381Z,9.28
2023-05-05T01:56:02.845Z,9.26
2023-05-05T01:58:32.957Z,9.23
2023-05-05T02:01:01.971Z,9.21
2023-05-05T02:03:32.234Z,9.19
2023-05-05T02:06:01.323Z,9.18
2023-05-05T02:08:31.641Z,9.17
2023-05-05T02:11:00.916Z,9.18
2023-05-05T02:13:32.630Z,9.18
2023-05-05T02:16:03.104Z,9.18
2023-05-05T02:18:35.884Z,9.19
2023-05-05T02:21:04.172Z,9.19
2023-05-05T02:23:32.178Z,9.19
2023-05-05T02:26:05.804Z,9.19
2023-05-05T02:28:37.775Z,9.18
2023-05-05T02:31:08.663Z,9.19
2023-05-05T02:33:38.723Z,9.19
2023-05-05T02:36:14.501Z,9.20
2023-05-05T02:38:58.220Z,9.18
2023-05-05T02:41:28.556Z,9.17
2023-05-05T02:43:59.680Z,9.14
2023-05-05T02:46:28.873Z,9.10
2023-05-05T02:48:56.932Z,9.05
2023-05-05T02:51:24.942Z,9.03
2023-05-05T02:53:53.369Z,8.98
2023-05-05T02:56:41.354Z,8.94
2023-05-05T02:59:27.867Z,8.87
2023-05-05T03:02:10.117Z,8.81
2023-05-05T03:04:42.441Z,8.78
2023-05-05T03:07:21.086Z,8.76
2023-05-05T03:10:03.261Z,8.76
2023-05-05T03:12:54.153Z,8.75
2023-05-05T03:15:41.493Z,8.73
2023-05-05T03:18:12.162Z,8.73
2023-05-05T03:20:42.828Z,8.70
2023-05-05T03:23:13.436Z,8.68
2023-05-05T03:25:43.737Z,8.66
2023-05-05T03:28:14.269Z,8.63
2023-05-05T03:30:42.877Z,8.61
2023-05-05T03:33:11.912Z,8.58
2023-05-05T03:35:40.879Z,8.55
2023-05-05T03:38:10.154Z,8.52
2023-05-05T03:40:44.350Z,8.53
2023-05-05T03:43:14.834Z,8.54
2023-05-05T03:45:43.042Z,8.55
2023-05-05T03:48:11.859Z,8.56
2023-05-05T03:50:40.678Z,8.58
2023-05-05T03:53:09.022Z,8.59
2023-05-05T03:55:37.346Z,8.62
2023-05-05T03:58:05.331Z,8.64
2023-05-05T04:00:33.442Z,8.66
2023-05-05T04:03:01.983Z,8.69
2023-05-05T04:05:30.618Z,8.71
2023-05-05T04:07:58.820Z,8.74
2023-05-05T04:10:27.244Z,8.79
2023-05-05T04:12:55.775Z,8.83
2023-05-05T04:15:23.815Z,8.88
2023-05-05T04:17:52.333Z,9.00
2023-05-05T04:20:20.539Z,9.23
2023-05-05T04:22:49.375Z,9.50
2023-05-05T04:25:19.516Z,9.76
2023-05-05T04:27:48.090Z,9.98
2023-05-05T04:30:16.774Z,10.23
2023-05-05T04:32:44.930Z,10.58
2023-05-05T04:35:13.136Z,10.95
2023-05-05T04:37:41.454Z,11.34
2023-05-05T04:40:10.057Z,11.69
2023-05-05T04:42:38.458Z,12.01
2023-05-05T04:45:08.564Z,12.22
2023-05-05T04:47:40.559Z,12.31
2023-05-05T04:50:09.697Z,12.36
2023-05-05T04:52:37.939Z,12.37
2023-05-05T04:55:06.626Z,12.48
2023-05-05T04:57:34.632Z,12.64
2023-05-05T05:00:04.941Z,12.73
2023-05-05T05:02:33.797Z,12.82
2023-05-05T05:05:01.907Z,12.96
2023-05-05T05:07:29.925Z,13.06
2023-05-05T05:09:58.043Z,13.16
2023-05-05T05:12:26.018Z,13.29
2023-05-05T05:14:53.929Z,13.43
2023-05-05T05:17:22.764Z,13.57
2023-05-05T05:19:50.859Z,13.73
2023-05-05T05:22:18.799Z,13.90
2023-05-05T05:24:46.906Z,14.07
2023-05-05T05:27:15.118Z,14.30
2023-05-05T05:29:44.547Z,14.64
2023-05-05T05:32:12.581Z,15.10
2023-05-05T05:34:40.705Z,15.44
2023-05-05T05:37:09.301Z,15.68
2023-05-05T05:39:38.089Z,15.89
2023-05-05T05:42:06.565Z,16.09
2023-05-05T05:44:34.879Z,16.28
2023-05-05T05:47:03.409Z,16.42
2023-05-05T05:49:32.116Z,16.53
2023-05-05T05:52:00.204Z,16.64
2023-05-05T05:54:28.553Z,16.73
2023-05-05T05:56:56.801Z,16.87
2023-05-05T05:59:24.785Z,17.07
2023-05-05T06:01:53.082Z,17.25
2023-05-05T06:04:21.541Z,17.43
2023-05-05T06:06:50.086Z,17.70
2023-05-05T06:09:18.181Z,17.98
2023-05-05T06:11:46.472Z,18.24
2023-05-05T06:14:14.820Z,18.54
2023-05-05T06:16:44.255Z,18.83
2023-05-05T06:19:17.101Z,19.10
2023-05-05T06:21:45.391Z,19.36
2023-05-05T06:24:13.403Z,19.54
2023-05-05T06:26:41.934Z,19.67
2023-05-05T06:29:11.816Z,19.79
2023-05-05T06:31:40.483Z,19.93
2023-05-05T06:34:08.492Z,20.09
2023-05-05T06:36:36.487Z,20.28
2023-05-05T06:39:04.440Z,20.46
2023-05-05T06:41:32.463Z,20.61
2023-05-05T06:44:00.449Z,20.81
2023-05-05T06:46:29.196Z,21.08
2023-05-05T06:48:57.156Z,21.35
2023-05-05T06:51:25.131Z,21.58
2023-05-05T06:53:53.111Z,21.66
2023-05-05T06:56:21.000Z,21.65
2023-05-05T06:58:48.891Z,21.73
2023-05-05T07:01:17.242Z,21.84
2023-05-05T07:03:45.324Z,21.96
2023-05-05T07:06:13.780Z,21.97
2023-05-05T07:08:41.685Z,21.84
2023-05-05T07:11:09.653Z,21.56
2023-05-05T07:13:37.549Z,21.35
2023-05-05T07:16:06.036Z,21.33
2023-05-05T07:18:34.033Z,21.43
2023-05-05T07:21:01.974Z,21.56
2023-05-05T07:23:29.902Z,21.60
2023-05-05T07:25:58.013Z,21.65
2023-05-05T07:28:26.539Z,21.68
2023-05-05T07:30:54.782Z,21.72
2023-05-05T07:33:22.685Z,21.68
2023-05-05T07:35:50.750Z,21.66
2023-05-05T07:38:18.773Z,21.53
2023-05-05T07:40:46.864Z,21.51
2023-05-05T07:43:14.859Z,21.55
2023-05-05T07:45:42.917Z,21.55
2023-05-05T07:48:10.967Z,21.56
2023-05-05T07:50:38.909Z,21.56
2023-05-05T07:53:14.466Z,21.53
2023-05-05T07:55:42.996Z,21.54
2023-05-05T07:58:11.308Z,21.61
2023-05-05T08:00:39.747Z,21.67
2023-05-05T08:03:11.322Z,21.70
2023-05-05T08:05:40.755Z,21.76
2023-05-05T08:08:08.878Z,21.88
2023-05-05T08:10:36.859Z,21.71
2023-05-05T08:13:04.862Z,21.57
2023-05-05T08:15:33.135Z,21.56
2023-05-05T08:18:01.165Z,21.57
2023-05-05T08:20:29.497Z,21.56
2023-05-05T08:22:57.461Z,21.58
2023-05-05T08:25:27.081Z,21.64
2023-05-05T08:27:55.170Z,21.76
2023-05-05T08:30:23.172Z,21.81
2023-05-05T08:32:51.458Z,21.84
2023-05-05T08:35:19.509Z,21.86
2023-05-05T08:37:47.514Z,21.92
2023-05-05T08:40:15.789Z,21.95
2023-05-05T08:42:45.949Z,22.04
2023-05-05T08:45:13.972Z,22.16
2023-05-05T08:47:43.514Z,22.27
2023-05-05T08:50:12.207Z,22.28
2023-05-05T08:52:44.391Z,22.17
2023-05-05T08:55:19.494Z,21.57
2023-05-05T08:57:52.637Z,21.34
2023-05-05T09:00:21.245Z,21.38
2023-05-05T09:02:49.835Z,21.46
2023-05-05T09:05:18.076Z,21.61
2023-05-05T09:07:47.368Z,21.68
2023-05-05T09:10:15.713Z,21.82
2023-05-05T09:12:43.859Z,21.95
2023-05-05T09:15:14.060Z,22.02
2023-05-05T09:17:42.412Z,22.12
2023-05-05T09:20:12.648Z,22.20
2023-05-05T09:22:42.980Z,22.24
2023-05-05T09:25:12.880Z,22.12
2023-05-05T09:27:46.199Z,22.16
2023-05-05T09:30:23.714Z,22.25
2023-05-05T09:32:55.571Z,22.33
2023-05-05T09:35:23.980Z,22.41
2023-05-05T09:37:52.029Z,22.45
2023-05-05T09:40:21.033Z,22.47
2023-05-05T09:42:49.042Z,22.50
2023-05-05T09:45:20.110Z,22.51
2023-05-05T09:47:49.258Z,22.55
2023-05-05T09:50:20.571Z,22.61
2023-05-05T09:53:14.975Z,22.55
2023-05-05T09:55:53.100Z,22.51
2023-05-05T09:58:26.008Z,22.35
2023-05-05T10:00:55.720Z,22.26
2023-05-05T10:03:24.476Z,22.21
2023-05-05T10:05:54.510Z,22.22
2023-05-05T10:08:33.611Z,22.36
2023-05-05T10:11:06.496Z,22.48
2023-05-05T10:13:42.081Z,22.55
2023-05-05T10:16:12.602Z,22.66
2023-05-05T10:18:46.469Z,22.73
2023-05-05T10:21:19.972Z,22.72
2023-05-05T10:24:15.875Z,22.74
2023-05-05T10:26:46.044Z,22.81
2023-05-05T10:29:21.592Z,22.87
2023-05-05T10:32:21.397Z,22.90
2023-05-05T10:35:00.144Z,22.98
2023-05-05T10:37:29.436Z,23.04
2023-05-05T10:39:58.710Z,23.01
2023-05-05T10:42:27.878Z,22.95
2023-05-05T10:44:56.070Z,22.96
2023-05-05T10:47:25.076Z,22.98
2023-05-05T10:50:14.793Z,23.02
2023-05-05T10:53:20.542Z,23.06
2023-05-05T10:55:54.231Z,23.08
2023-05-05T10:58:51.256Z,23.14
2023-05-05T11:01:34.130Z,22.99
2023-05-05T11:04:18.547Z,23.00
2023-05-05T11:07:11.044Z,23.11
2023-05-05T11:10:01.793Z,23.24
2023-05-05T11:12:31.605Z,23.29
2023-05-05T11:15:24.371Z,23.25
2023-05-05T11:17:54.038Z,23.26
2023-05-05T11:20:40.557Z,23.31
2023-05-05T11:23:08.535Z,23.39
2023-05-05T11:25:36.952Z,23.44
2023-05-05T11:28:09.226Z,23.48
2023-05-05T11:30:56.421Z,23.48
2023-05-05T11:33:31.217Z,23.52
2023-05-05T11:35:59.211Z,23.53
2023-05-05T11:38:38.972Z,23.55
2023-05-05T11:41:23.472Z,23.58
2023-05-05T11:44:08.683Z,23.59
2023-05-05T11:46:37.047Z,23.63
2023-05-05T11:49:05.018Z,23.67
2023-05-05T11:51:34.084Z,23.68
2023-05-05T11:54:02.108Z,23.74
2023-05-05T11:56:30.097Z,23.76
2023-05-05T11:59:09.852Z,23.75
2023-05-05T12:01:41.785Z,23.73
2023-05-05T12:04:14.547Z,23.77
2023-05-05T12:06:43.453Z,23.74
2023-05-05T12:09:18.833Z,23.63
2023-05-05T12:11:58.141Z,23.67
2023-05-05T12:14:26.195Z,23.75
2023-05-05T12:16:55.777Z,23.83
2023-05-05T12:19:24.617Z,23.88
2023-05-05T12:21:54.317Z,23.94
2023-05-05T12:24:23.022Z,23.92
2023-05-05T12:26:51.740Z,23.85
2023-05-05T12:29:29.110Z,23.78
2023-05-05T12:31:58.128Z,23.74
2023-05-05T12:34:26.469Z,23.69
2023-05-05T12:36:54.562Z,23.59
2023-05-05T12:39:22.595Z,23.62
2023-05-05T12:41:50.714Z,23.72
2023-05-05T12:44:18.657Z,23.75
2023-05-05T12:46:48.259Z,23.80
2023-05-05T12:49:16.948Z,23.87
2023-05-05T12:51:56.495Z,23.94
2023-05-05T12:54:25.179Z,24.02
2023-05-05T12:56:53.126Z,24.06
2023-05-05T12:59:21.108Z,24.14
2023-05-05T13:01:51.033Z,24.19
2023-05-05T13:04:21.033Z,24.24
2023-05-05T13:06:54.048Z,24.23
2023-05-05T13:09:26.991Z,24.28
2023-05-05T13:11:54.998Z,24.33
2023-05-05T13:14:23.569Z,24.31
2023-05-05T13:16:51.510Z,24.24
2023-05-05T13:19:19.478Z,24.24
2023-05-05T13:21:47.506Z,24.23
2023-05-05T13:26:47.040Z,24.31
2023-05-05T13:29:16.528Z,24.36
2023-05-05T13:31:45.461Z,24.39
2023-05-05T13:34:13.664Z,24.47
2023-05-05T13:36:41.769Z,24.53
2023-05-05T13:39:09.912Z,24.54
2023-05-05T13:41:38.041Z,24.62
2023-05-05T13:44:06.020Z,24.68
2023-05-05T13:46:33.998Z,24.72
2023-05-05T13:49:02.177Z,24.80
2023-05-05T13:51:30.204Z,24.84
2023-05-05T13:53:58.182Z,24.81
2023-05-05T13:56:27.850Z,24.76
2023-05-05T13:58:56.064Z,24.61
2023-05-05T14:01:24.221Z,24.54
2023-05-05T14:03:52.361Z,24.61
2023-05-05T14:06:20.708Z,24.62
2023-05-05T14:08:48.650Z,24.58
2023-05-05T14:11:18.195Z,24.56
2023-05-05T14:13:46.736Z,24.55
2023-05-05T14:16:14.778Z,24.50
2023-05-05T14:18:42.931Z,24.46
2023-05-05T14:21:11.294Z,24.44
2023-05-05T14:23:39.238Z,24.41
2023-05-05T14:26:09.044Z,24.41
2023-05-05T14:28:37.286Z,24.39
2023-05-05T14:31:05.404Z,24.34
2023-05-05T14:33:33.342Z,24.31
2023-05-05T14:36:01.398Z,24.26
2023-05-05T14:38:29.387Z,24.18
2023-05-05T14:40:57.320Z,24.13
2023-05-05T14:43:25.743Z,24.15
2023-05-05T14:45:53.835Z,24.09
2023-05-05T14:48:22.331Z,24.06
2023-05-05T14:50:50.497Z,24.08
2023-05-05T14:53:19.395Z,24.07
2023-05-05T14:55:47.460Z,24.02
2023-05-05T14:58:15.781Z,23.93
2023-05-05T15:00:43.817Z,23.85
2023-05-05T15:03:11.814Z,23.81
2023-05-05T15:05:39.834Z,23.76
2023-05-05T15:08:07.935Z,23.72
2023-05-05T15:10:35.950Z,23.68
2023-05-05T15:13:03.956Z,23.69
2023-05-05T15:15:32.017Z,23.74
2023-05-05T15:17:59.984Z,23.81
2023-05-05T15:20:28.195Z,23.84
2023-05-05T15:22:56.379Z,23.88
2023-05-05T15:25:24.456Z,23.90
2023-05-05T15:27:52.522Z,23.95
2023-05-05T15:30:20.650Z,23.97
2023-05-05T15:32:48.570Z,23.95
2023-05-05T15:35:16.738Z,23.96
2023-05-05T15:37:44.721Z,23.95
2023-05-05T15:40:12.923Z,23.93
2023-05-05T15:42:41.019Z,23.88
2023-05-05T15:45:12.406Z,23.77
2023-05-05T15:47:40.845Z,23.66
2023-05-05T15:50:09.311Z,23.59
2023-05-05T15:52:37.338Z,23.54
2023-05-05T15:55:06.791Z,23.48
2023-05-05T15:57:35.339Z,23.42
2023-05-05T16:00:03.577Z,23.42
2023-05-05T16:02:35.822Z,23.43
2023-05-05T16:05:04.638Z,23.43
2023-05-05T16:07:32.669Z,23.40
2023-05-05T16:10:00.609Z,23.42
2023-05-05T16:12:28.624Z,23.41
2023-05-05T16:14:56.757Z,23.42
2023-05-05T16:17:24.794Z,23.41
2023-05-05T16:19:52.751Z,23.41
2023-05-05T16:22:21.115Z,23.37
2023-05-05T16:24:49.036Z,23.23
2023-05-05T16:27:17.008Z,23.10
2023-05-05T16:29:44.929Z,22.97
2023-05-05T16:32:12.950Z,22.83
2023-05-05T16:34:40.960Z,22.71
2023-05-05T16:37:08.846Z,22.61
2023-05-05T16:39:40.333Z,22.49
2023-05-05T16:42:08.450Z,22.37
2023-05-05T16:44:36.437Z,22.25
2023-05-05T16:47:04.450Z,22.16
2023-05-05T16:49:32.445Z,22.07
2023-05-05T16:52:00.656Z,22.04
2023-05-05T16:54:28.569Z,22.00
2023-05-05T16:56:56.643Z,21.93
2023-05-05T16:59:24.694Z,21.88
2023-05-05T17:01:52.696Z,21.82
2023-05-05T17:04:20.696Z,21.73
2023-05-05T17:06:48.690Z,21.64
2023-05-05T17:09:16.708Z,21.51
2023-05-05T17:11:44.606Z,21.39
2023-05-05T17:14:12.481Z,21.26
2023-05-05T17:16:40.699Z,21.14
2023-05-05T17:19:08.669Z,21.02
2023-05-05T17:21:36.566Z,20.89
2023-05-05T17:24:04.881Z,20.82
2023-05-05T17:26:32.958Z,20.72
2023-05-05T17:29:00.888Z,20.59
2023-05-05T17:31:28.842Z,20.46
2023-05-05T17:33:56.958Z,20.36
2023-05-05T17:36:24.947Z,20.26
2023-05-05T17:38:52.973Z,20.18
2023-05-05T17:41:21.954Z,20.11
2023-05-05T17:43:49.927Z,20.08
2023-05-05T17:46:18.074Z,20.04
2023-05-05T17:48:46.254Z,19.99
2023-05-05T17:51:14.274Z,19.95
2023-05-05T17:53:42.228Z,19.90
2023-05-05T17:56:10.221Z,19.86
2023-05-05T17:58:38.563Z,19.84
2023-05-05T18:01:06.756Z,19.82
2023-05-05T18:03:34.837Z,19.74
2023-05-05T18:06:02.853Z,19.66
2023-05-05T18:08:30.897Z,19.62
2023-05-05T18:10:58.806Z,19.53
2023-05-05T18:13:26.870Z,19.40
2023-05-05T18:15:54.912Z,19.32
2023-05-05T18:18:23.364Z,19.25
2023-05-05T18:20:51.579Z,19.09
2023-05-05T18:23:19.640Z,19.06
2023-05-05T18:25:47.520Z,19.01
2023-05-05T18:28:15.464Z,18.93
2023-05-05T18:30:43.409Z,18.88
2023-05-05T18:33:11.279Z,18.88
2023-05-05T18:35:39.245Z,18.82
2023-05-05T18:38:07.247Z,18.78
2023-05-05T18:40:35.310Z,18.71
2023-05-05T18:43:03.279Z,18.60
2023-05-05T18:45:31.369Z,18.53
2023-05-05T18:47:59.833Z,18.50
2023-05-05T18:50:28.267Z,18.48
2023-05-05T18:52:56.375Z,18.41
2023-05-05T18:55:24.329Z,18.31
2023-05-05T18:57:53.118Z,18.23
2023-05-05T19:00:21.217Z,18.15
2023-05-05T19:02:49.563Z,18.08
2023-05-05T19:05:18.329Z,18.00
2023-05-05T19:07:46.353Z,17.91
2023-05-05T19:10:14.298Z,17.78
2023-05-05T19:12:42.325Z,17.68
2023-05-05T19:15:11.670Z,17.59
2023-05-05T19:17:39.902Z,17.49
2023-05-05T19:20:08.852Z,17.40
2023-05-05T19:22:37.132Z,17.29
2023-05-05T19:25:05.635Z,17.19
2023-05-05T19:27:34.175Z,17.16
2023-05-05T19:30:02.139Z,17.13
2023-05-05T19:32:30.138Z,17.10
2023-05-05T19:34:58.203Z,17.06
2023-05-05T19:37:26.518Z,17.02
2023-05-05T19:39:54.576Z,16.98
2023-05-05T19:42:22.519Z,16.93
2023-05-05T19:44:50.481Z,16.92
2023-05-05T19:47:18.602Z,16.90
2023-05-05T19:49:46.587Z,16.98
2023-05-05T19:52:14.540Z,17.06
2023-05-05T19:54:43.572Z,17.08
2023-05-05T19:57:11.553Z,17.18
2023-05-05T19:59:39.800Z,17.28
2023-05-05T20:02:10.212Z,17.40
2023-05-05T20:04:38.329Z,17.46
2023-05-05T20:07:06.302Z,17.52
2023-05-05T20:09:34.307Z,17.53
2023-05-05T20:12:02.469Z,17.49
2023-05-05T20:14:30.469Z,17.40
2023-05-05T20:16:58.501Z,17.31
2023-05-05T20:19:26.546Z,17.24
2023-05-05T20:21:54.610Z,17.18
2023-05-05T20:24:22.852Z,17.12
2023-05-05T20:26:50.829Z,17.06
2023-05-05T20:29:20.388Z,16.99
2023-05-05T20:31:48.768Z,16.84
2023-05-05T20:34:16.835Z,16.65
2023-05-05T20:36:44.801Z,16.43
2023-05-05T20:39:16.304Z,16.22
2023-05-05T20:41:46.273Z,16.05
2023-05-05T20:44:14.201Z,15.92
2023-05-05T20:46:42.144Z,15.77
2023-05-05T20:49:10.026Z,15.65
2023-05-05T20:51:38.063Z,15.55
2023-05-05T20:54:06.087Z,15.42
2023-05-05T20:56:34.006Z,15.30
2023-05-05T20:59:01.998Z,15.18
2023-05-05T21:01:30.097Z,15.11
2023-05-05T21:04:00.522Z,15.03
2023-05-05T21:06:28.515Z,14.94
2023-05-05T21:08:56.693Z,14.87
2023-05-05T21:11:24.613Z,14.81
2023-05-05T21:13:52.573Z,14.75
2023-05-05T21:16:21.090Z,14.71
2023-05-05T21:18:49.173Z,14.66
2023-05-05T21:21:17.235Z,14.57
2023-05-05T21:23:47.946Z,14.49
2023-05-05T21:26:16.104Z,14.42
2023-05-05T21:28:44.026Z,14.37
2023-05-05T21:31:21.631Z,14.32
2023-05-05T21:33:50.302Z,14.26
2023-05-05T21:36:19.331Z,14.18
2023-05-05T21:38:47.333Z,14.11
2023-05-05T21:41:15.318Z,14.06
2023-05-05T21:43:43.226Z,14.04
2023-05-05T21:46:11.262Z,14.02
2023-05-05T21:48:40.079Z,13.98
2023-05-05T21:51:08.129Z,13.96
2023-05-05T21:53:37.757Z,13.93
2023-05-05T21:56:08.413Z,13.87
2023-05-05T21:58:36.473Z,13.84
2023-05-05T22:01:04.598Z,13.82
2023-05-05T22:03:34.386Z,13.80
2023-05-05T22:06:02.945Z,13.77
2023-05-05T22:08:30.865Z,13.73
2023-05-05T22:10:58.775Z,13.71
2023-05-05T22:13:26.696Z,13.68
2023-05-05T22:15:54.710Z,13.66
2023-05-05T22:18:22.648Z,13.63
2023-05-05T22:20:51.437Z,13.60
2023-05-05T22:23:19.435Z,13.57
2023-05-05T22:25:47.715Z,13.54
2023-05-05T22:28:15.583Z,13.51
2023-05-05T22:30:43.752Z,13.48
2023-05-05T22:33:11.777Z,13.47
2023-05-05T22:35:39.772Z,13.44
2023-05-05T22:38:07.875Z,13.41
2023-05-05T22:40:35.984Z,13.39
2023-05-05T22:43:03.975Z,13.36
2023-05-05T22:45:31.996Z,13.34
2023-05-05T22:48:00.172Z,13.33
2023-05-05T22:50:28.381Z,13.31
2023-05-05T22:52:56.654Z,13.29
2023-05-05T22:55:24.926Z,13.27
2023-05-05T22:57:52.921Z,13.26
2023-05-05T23:00:20.845Z,13.22
2023-05-05T23:02:48.916Z,13.19
2023-05-05T23:05:17.000Z,13.16
2023-05-05T23:07:45.085Z,13.12
2023-05-05T23:10:13.046Z,13.08
2023-05-05T23:12:41.034Z,13.05
2023-05-05T23:15:10.132Z,13.03
2023-05-05T23:17:38.298Z,12.99
2023-05-05T23:20:09.506Z,12.93
2023-05-05T23:22:37.847Z,12.88
2023-05-05T23:25:06.178Z,12.85
2023-05-05T23:27:34.094Z,12.80
2023-05-05T23:30:02.006Z,12.77
2023-05-05T23:32:29.985Z,12.75
2023-05-05T23:34:57.898Z,12.74
2023-05-05T23:37:25.785Z,12.70
2023-05-05T23:39:53.703Z,12.65
2023-05-05T23:42:21.655Z,12.62
2023-05-05T23:44:49.581Z,12.59
2023-05-05T23:47:17.487Z,12.56
2023-05-05T23:49:45.516Z,12.52
2023-05-05T23:52:13.436Z,12.50
2023-05-05T23:54:41.897Z,12.47
2023-05-05T23:57:09.917Z,12.45
2023-05-05T23:59:39.163Z,12.45
